Time;durP1;ratioP1;P1;durP2;ratioP2;P2;SDS_P1;SDS_P2;PMS_P1;PMS_P2;Temp;Humidity;BMP_temperature;BMP_pressure;BME280_temperature;BME280_humidity;BME280_pressure;Samples;Min_cycle;Max_cycle;Signal;HPM_P1;HPM_P2
2024/03/09 00:01:37;;;;;;;20.10;16.10;;;;;;;8.19;40.39;102102.35;106299;1252;1003054;-55
2024/03/09 00:04:04;;;;;;;22.80;16.10;;;;;;;8.17;40.20;102099.21;106381;1256;1002690;-55
2024/03/09 00:06:33;;;;;;;18.90;15.20;;;;;;;8.14;40.22;102099.36;106809;1259;25304;-55
2024/03/09 00:09:00;;;;;;;21.80;15.60;;;;;;;8.12;40.31;102096.05;106367;1255;1002915;-56
2024/03/09 00:11:27;;;;;;;20.00;14.80;;;;;;;8.10;40.07;102094.30;106319;1264;1003029;-55
2024/03/09 00:13:56;;;;;;;20.70;16.00;;;;;;;8.07;39.90;102091.17;107057;1254;25415;-55
2024/03/09 00:16:23;;;;;;;21.20;15.60;;;;;;;8.05;40.02;102087.87;106873;1271;25338;-55
2024/03/09 00:18:51;;;;;;;22.30;16.60;;;;;;;8.03;39.96;102089.93;107079;1254;25379;-55
2024/03/09 00:21:18;;;;;;;21.00;15.70;;;;;;;8.01;39.94;102091.61;107095;1253;25369;-55
2024/03/09 00:23:50;;;;;;;20.40;15.50;;;;;;;7.99;39.95;102085.57;107126;1252;25348;-55
2024/03/09 00:26:17;;;;;;;22.00;15.40;;;;;;;7.96;39.84;102080.70;106307;1253;1003583;-55
2024/03/09 00:28:45;;;;;;;23.00;15.50;;;;;;;7.94;39.88;102078.08;107058;1263;25498;-55
2024/03/09 00:31:12;;;;;;;20.70;15.50;;;;;;;7.92;39.77;102077.36;106776;1260;25379;-55
2024/03/09 00:33:41;;;;;;;18.90;15.40;;;;;;;7.88;39.77;102081.80;106279;1257;1002749;-55
2024/03/09 00:36:09;;;;;;;22.50;15.90;;;;;;;7.87;39.82;102082.84;107007;1269;24501;-55
2024/03/09 00:38:38;;;;;;;21.20;15.60;;;;;;;7.85;40.06;102084.54;106768;1258;25341;-55
2024/03/09 00:41:04;;;;;;;20.70;16.00;;;;;;;7.81;40.11;102081.56;107153;1258;25444;-55
2024/03/09 00:43:36;;;;;;;22.10;15.90;;;;;;;7.80;40.03;102080.88;106987;1258;25360;-55
2024/03/09 00:46:03;;;;;;;21.10;15.00;;;;;;;7.79;40.24;102078.27;106838;1255;25373;-55
2024/03/09 00:48:30;;;;;;;21.20;15.50;;;;;;;7.79;40.11;102078.42;107098;1257;25351;-55
2024/03/09 00:50:57;;;;;;;22.50;15.20;;;;;;;7.79;40.20;102077.91;107084;1258;25407;-55
2024/03/09 00:53:25;;;;;;;22.70;15.80;;;;;;;7.79;40.11;102075.52;107043;1258;25450;-55
2024/03/09 00:55:52;;;;;;;19.60;15.20;;;;;;;7.80;39.96;102074.30;106362;1256;1002841;-55
2024/03/09 00:58:21;;;;;;;21.80;16.40;;;;;;;7.79;39.96;102072.39;107057;1263;25473;-55
2024/03/09 01:00:48;;;;;;;20.60;15.30;;;;;;;7.78;40.02;102068.23;106297;1255;1003219;-55
2024/03/09 01:03:15;;;;;;;20.90;15.60;;;;;;;7.77;40.07;102066.66;107163;1257;25373;-55
2024/03/09 01:05:44;;;;;;;23.30;15.90;;;;;;;7.76;39.90;102063.36;107168;1257;25369;-55
2024/03/09 01:08:14;;;;;;;23.00;15.60;;;;;;;7.74;40.01;102061.46;106834;1261;25422;-55
2024/03/09 01:10:44;;;;;;;20.80;16.10;;;;;;;7.72;40.04;102058.50;107113;1257;25377;-55
2024/03/09 01:13:11;;;;;;;22.20;15.70;;;;;;;7.70;40.08;102057.79;107082;1267;25363;-55
2024/03/09 01:15:38;;;;;;;20.00;15.60;;;;;;;7.67;40.23;102055.34;106961;1258;25463;-55
2024/03/09 01:18:05;;;;;;;20.60;15.70;;;;;;;7.64;40.11;102058.07;107107;1257;25382;-55
2024/03/09 01:20:32;;;;;;;21.30;15.90;;;;;;;7.62;40.10;102057.18;107077;1267;25380;-55
2024/03/09 01:22:59;;;;;;;24.80;16.30;;;;;;;7.59;40.13;102059.59;107089;1253;25351;-56
2024/03/09 01:25:26;;;;;;;21.20;15.80;;;;;;;7.56;40.24;102056.94;107003;1263;24390;-55
2024/03/09 01:27:53;;;;;;;20.50;14.80;;;;;;;7.54;40.36;102055.19;106333;1264;1003093;-55
2024/03/09 01:30:20;;;;;;;20.90;15.40;;;;;;;7.50;40.36;102052.20;106387;1253;1003552;-55
2024/03/09 01:32:49;;;;;;;20.40;15.70;;;;;;;7.48;40.34;102054.93;106886;1261;25428;-55
2024/03/09 01:35:17;;;;;;;21.60;15.20;;;;;;;7.45;40.39;102050.77;107029;1256;25501;-55
2024/03/09 01:37:44;;;;;;;22.30;15.40;;;;;;;7.43;40.45;102050.57;107121;1256;25367;-55
2024/03/09 01:40:11;;;;;;;21.10;16.00;;;;;;;7.41;40.50;102048.66;107038;1256;25428;-55
2024/03/09 01:42:39;;;;;;;21.40;17.00;;;;;;;7.41;40.45;102048.14;107221;1256;25376;-55
2024/03/09 01:45:07;;;;;;;21.90;15.80;;;;;;;7.42;40.58;102047.97;107073;1253;25351;-55
2024/03/09 01:47:35;;;;;;;26.00;15.50;;;;;;;7.44;40.51;102044.54;106276;1257;1003080;-55
2024/03/09 01:50:02;;;;;;;24.10;17.00;;;;;;;7.45;40.50;102043.17;107107;1256;25492;-55
2024/03/09 01:52:31;;;;;;;22.20;16.50;;;;;;;7.46;40.50;102043.52;106304;1252;1003644;-55
2024/03/09 01:55:03;;;;;;;21.70;16.90;;;;;;;7.48;40.63;102045.79;107068;1257;25376;-55
2024/03/09 01:57:30;;;;;;;21.80;15.80;;;;;;;7.49;40.62;102042.35;107194;1251;25515;-55
2024/03/09 01:59:57;;;;;;;21.30;16.70;;;;;;;7.48;40.54;102039.40;106297;1253;1003324;-55
2024/03/09 02:02:24;;;;;;;22.90;16.80;;;;;;;7.48;40.45;102039.23;106970;1252;24209;-55
2024/03/09 02:04:51;;;;;;;22.10;16.50;;;;;;;7.46;40.59;102040.09;106503;1256;1003034;-55
2024/03/09 02:07:19;;;;;;;21.90;16.60;;;;;;;7.44;40.52;102041.95;107112;1259;25380;-55
2024/03/09 02:09:46;;;;;;;20.70;16.50;;;;;;;7.41;40.67;102044.52;105375;1257;1003607;-55
2024/03/09 02:12:16;;;;;;;22.00;16.60;;;;;;;7.40;40.78;102046.90;107105;1253;23626;-55
2024/03/09 02:14:44;;;;;;;24.40;17.10;;;;;;;7.36;40.75;102050.66;106296;1258;1003020;-55
2024/03/09 02:17:12;;;;;;;24.60;17.60;;;;;;;7.34;40.78;102047.02;106427;1255;1003809;-55
2024/03/09 02:19:39;;;;;;;22.30;16.50;;;;;;;7.31;40.92;102049.23;107118;1257;25443;-55
2024/03/09 02:22:11;;;;;;;26.80;18.70;;;;;;;7.28;40.98;102050.57;106357;1256;1003215;-55
2024/03/09 02:24:41;;;;;;;23.70;16.90;;;;;;;7.25;40.93;102051.91;107143;1256;22582;-55
2024/03/09 02:27:09;;;;;;;22.40;16.90;;;;;;;7.22;40.86;102052.05;107067;1257;25352;-55
2024/03/09 02:29:35;;;;;;;21.90;16.60;;;;;;;7.19;40.81;102050.63;106432;1252;1003784;-55
2024/03/09 02:32:03;;;;;;;24.90;17.50;;;;;;;7.16;40.88;102048.17;106417;1252;1003390;-55
2024/03/09 02:34:31;;;;;;;24.30;16.80;;;;;;;7.14;40.98;102046.26;107137;1252;25351;-55
2024/03/09 02:36:58;;;;;;;26.50;17.40;;;;;;;7.13;41.02;102048.64;107091;1257;24342;-55
2024/03/09 02:39:27;;;;;;;24.80;17.90;;;;;;;7.11;41.11;102046.05;107055;1265;25363;-55
2024/03/09 02:41:58;;;;;;;24.80;17.30;;;;;;;7.10;41.01;102045.85;107119;1256;25418;-55
2024/03/09 02:44:28;;;;;;;24.30;17.00;;;;;;;7.08;41.08;102042.89;107210;1256;23371;-55
2024/03/09 02:46:55;;;;;;;22.20;16.60;;;;;;;7.05;41.03;102042.52;107103;1256;22538;-55
2024/03/09 02:49:24;;;;;;;22.10;16.70;;;;;;;7.02;41.09;102038.33;107010;1259;25351;-55
2024/03/09 02:51:51;;;;;;;24.60;17.10;;;;;;;6.99;41.21;102040.02;106364;1257;1003344;-55
2024/03/09 02:54:18;;;;;;;22.30;16.80;;;;;;;6.95;41.26;102039.09;106598;1261;25351;-55
2024/03/09 02:56:46;;;;;;;21.90;16.40;;;;;;;6.91;41.52;102041.80;107061;1256;25348;-55
2024/03/09 02:59:15;;;;;;;23.50;17.30;;;;;;;6.88;41.70;102039.52;106442;1263;1002601;-55
2024/03/09 03:01:42;;;;;;;28.70;18.50;;;;;;;6.86;41.82;102037.42;107185;1252;25373;-55
2024/03/09 03:04:11;;;;;;;24.50;17.80;;;;;;;6.85;42.05;102041.55;107163;1266;25443;-55
2024/03/09 03:06:38;;;;;;;24.50;17.20;;;;;;;6.85;42.29;102038.95;107206;1253;24355;-55
2024/03/09 03:09:10;;;;;;;25.60;17.30;;;;;;;6.86;42.44;102034.65;107092;1257;22526;-55
2024/03/09 03:11:40;;;;;;;28.30;17.30;;;;;;;6.87;42.60;102034.66;107110;1255;23909;-55
2024/03/09 03:14:07;;;;;;;26.70;17.60;;;;;;;6.90;42.66;102030.92;107017;1256;25351;-55
2024/03/09 03:16:37;;;;;;;23.00;17.00;;;;;;;6.92;42.62;102029.91;106742;1262;25376;-55
2024/03/09 03:19:06;;;;;;;23.00;17.10;;;;;;;6.94;42.46;102032.35;106837;1269;25361;-55
2024/03/09 03:21:34;;;;;;;23.80;17.10;;;;;;;6.94;42.38;102028.04;107066;1264;25399;-55
2024/03/09 03:24:02;;;;;;;23.70;16.80;;;;;;;6.76;42.50;102025.21;106894;1265;25491;-55
2024/03/09 03:26:31;;;;;;;25.70;17.70;;;;;;;6.93;42.10;102021.80;107083;1256;25428;-55
2024/03/09 03:29:01;;;;;;;24.20;17.00;;;;;;;6.95;41.94;102025.47;106806;1269;25380;-55
2024/03/09 03:31:29;;;;;;;22.40;17.60;;;;;;;6.93;41.84;102023.71;106461;1254;1003772;-55
2024/03/09 03:33:57;;;;;;;23.90;16.70;;;;;;;6.90;41.85;102022.80;107099;1254;25351;-55
2024/03/09 03:36:25;;;;;;;22.50;17.60;;;;;;;6.87;41.89;102024.84;106068;1272;1003382;-55
2024/03/09 03:38:51;;;;;;;24.80;17.70;;;;;;;6.84;41.65;102027.20;106770;1265;23783;-55
2024/03/09 03:41:22;;;;;;;22.30;17.20;;;;;;;6.81;41.48;102022.69;106935;1257;25333;-55
2024/03/09 03:43:49;;;;;;;28.10;17.70;;;;;;;6.78;41.46;102024.36;107138;1265;24396;-54
2024/03/09 03:46:16;;;;;;;25.20;17.50;;;;;;;6.75;41.51;102026.92;106349;1252;1003020;-55
2024/03/09 03:48:46;;;;;;;24.10;16.70;;;;;;;6.73;41.48;102030.85;107109;1257;25852;-55
2024/03/09 03:51:15;;;;;;;26.40;17.20;;;;;;;6.71;41.59;102032.02;107001;1259;25930;-55
2024/03/09 03:53:43;;;;;;;24.50;16.90;;;;;;;6.69;41.69;102031.84;107120;1256;25373;-55
2024/03/09 03:56:11;;;;;;;25.20;17.90;;;;;;;6.69;41.63;102030.29;107123;1256;24387;-55
2024/03/09 03:58:39;;;;;;;27.90;18.20;;;;;;;6.69;41.76;102030.28;106413;1254;1002968;-56
2024/03/09 04:01:06;;;;;;;26.80;18.30;;;;;;;6.69;41.76;102026.83;106889;1257;22582;-55
2024/03/09 04:03:33;;;;;;;24.60;17.70;;;;;;;6.70;41.70;102031.16;106973;1258;25469;-55
2024/03/09 04:06:02;;;;;;;26.40;17.40;;;;;;;6.70;41.62;102030.29;106085;1259;1002843;-55
2024/03/09 04:08:29;;;;;;;25.80;18.30;;;;;;;6.69;41.59;102031.14;106300;1256;1003333;-54
2024/03/09 04:10:56;;;;;;;25.40;18.10;;;;;;;6.67;41.62;102028.52;106119;1257;1003002;-55
2024/03/09 04:13:24;;;;;;;25.00;16.60;;;;;;;6.65;41.78;102030.55;106165;1259;1003801;-55
2024/03/09 04:15:52;;;;;;;23.80;18.00;;;;;;;6.63;41.81;102031.56;106987;1256;25466;-55
2024/03/09 04:18:21;;;;;;;23.60;17.60;;;;;;;6.60;41.83;102031.67;107074;1262;22525;-55
2024/03/09 04:20:48;;;;;;;26.40;17.60;;;;;;;6.57;41.87;102033.73;106777;1259;22515;-54
2024/03/09 04:23:18;;;;;;;27.00;18.30;;;;;;;6.55;41.98;102032.15;106340;1257;1002564;-55
2024/03/09 04:25:46;;;;;;;25.70;18.30;;;;;;;6.54;42.00;102033.16;107094;1258;22561;-55
2024/03/09 04:28:20;;;;;;;28.40;20.40;;;;;;;6.53;42.19;102038.66;106960;1257;25405;-55
2024/03/09 04:30:48;;;;;;;27.60;19.30;;;;;;;6.52;42.27;102041.92;107084;1255;25422;-55
2024/03/09 04:33:16;;;;;;;27.40;19.70;;;;;;;6.53;42.34;102038.84;106768;1258;24226;-55
2024/03/09 04:35:43;;;;;;;26.40;18.10;;;;;;;6.54;42.47;102043.33;106197;1268;1002640;-55
2024/03/09 04:38:13;;;;;;;26.50;18.50;;;;;;;6.57;42.43;102044.77;106764;1258;25351;-55
2024/03/09 04:40:43;;;;;;;28.50;18.50;;;;;;;6.58;42.40;102043.91;106838;1261;25402;-55
2024/03/09 04:43:13;;;;;;;22.60;18.10;;;;;;;6.62;42.21;102046.54;107010;1259;22610;-55
2024/03/09 04:45:40;;;;;;;30.60;18.80;;;;;;;6.64;41.99;102053.82;107098;1256;25466;-55
2024/03/09 04:48:09;;;;;;;26.10;18.10;;;;;;;6.65;41.82;102055.91;107066;1259;25469;-55
2024/03/09 04:50:38;;;;;;;25.00;18.00;;;;;;;6.65;41.51;102053.34;106402;1254;1003896;-55
2024/03/09 04:53:06;;;;;;;21.10;16.60;;;;;;;6.65;41.38;102055.91;106983;1262;25352;-55
2024/03/09 04:55:35;;;;;;;25.60;17.10;;;;;;;6.63;41.25;102057.43;107090;1259;25417;-55
2024/03/09 04:58:13;;;;;;;26.90;18.00;;;;;;;6.62;41.27;102057.23;106845;1259;25350;-55
2024/03/09 05:00:41;;;;;;;25.90;18.40;;;;;;;6.58;41.33;102059.77;106067;1272;1003744;-55
2024/03/09 05:03:08;;;;;;;22.80;17.00;;;;;;;6.56;41.31;102058.52;106141;1260;1003282;-55
2024/03/09 05:05:35;;;;;;;26.60;17.90;;;;;;;6.53;41.33;102060.21;106104;1261;1003506;-54
2024/03/09 05:08:03;;;;;;;25.30;18.10;;;;;;;6.51;41.32;102061.73;106760;1259;25382;-55
2024/03/09 05:10:30;;;;;;;24.20;17.50;;;;;;;6.49;41.35;102061.52;106753;1258;25396;-55
2024/03/09 05:12:57;;;;;;;27.90;18.30;;;;;;;6.59;41.12;102062.54;106152;1270;1002861;-55
2024/03/09 05:15:26;;;;;;;24.10;17.20;;;;;;;6.59;41.01;102060.98;106338;1266;1003744;-55
2024/03/09 05:17:58;;;;;;;25.10;18.30;;;;;;;6.58;41.07;102061.67;106319;1256;1003614;-55
2024/03/09 05:20:25;;;;;;;24.40;16.90;;;;;;;6.58;41.08;102068.56;106158;1261;1003695;-55
2024/03/09 05:22:57;;;;;;;23.90;16.50;;;;;;;6.59;41.15;102066.16;107006;1253;25350;-54
2024/03/09 05:25:24;;;;;;;26.70;17.80;;;;;;;6.62;41.27;102072.41;107145;1259;25341;-55
2024/03/09 05:27:52;;;;;;;23.10;16.80;;;;;;;6.66;41.17;102072.31;106964;1259;25513;-55
2024/03/09 05:30:22;;;;;;;24.40;17.10;;;;;;;6.70;41.18;102078.58;107017;1256;25538;-55
2024/03/09 05:32:57;;;;;;;23.90;16.70;;;;;;;6.73;41.35;102073.78;106374;1255;1003071;-55
2024/03/09 05:35:28;;;;;;;21.80;15.80;;;;;;;6.77;41.28;102075.23;107062;1256;25434;-55
2024/03/09 05:37:56;;;;;;;24.00;17.20;;;;;;;6.76;41.32;102082.46;107090;1266;25343;-55
2024/03/09 05:40:28;;;;;;;26.80;16.70;;;;;;;6.70;41.55;102088.75;106419;1263;1002969;-55
2024/03/09 05:42:56;;;;;;;23.80;17.40;;;;;;;6.71;41.47;102087.90;107062;1256;25452;-54
2024/03/09 05:45:23;;;;;;;24.70;18.50;;;;;;;6.72;41.50;102090.84;107057;1256;25331;-55
2024/03/09 05:47:55;;;;;;;25.40;18.20;;;;;;;6.73;41.51;102091.21;107085;1259;25536;-55
2024/03/09 05:50:25;;;;;;;22.50;16.50;;;;;;;6.75;41.56;102091.41;106880;1269;25400;-55
2024/03/09 05:52:53;;;;;;;22.80;17.00;;;;;;;6.76;41.70;102091.08;107028;1255;24281;-55
2024/03/09 05:55:21;;;;;;;21.90;15.70;;;;;;;6.78;41.69;102093.02;107162;1256;25801;-55
2024/03/09 05:57:49;;;;;;;28.00;19.00;;;;;;;6.79;41.66;102093.89;107091;1259;25372;-55
2024/03/09 06:00:20;;;;;;;23.00;16.60;;;;;;;6.80;41.75;102092.69;107199;1256;25376;-55
2024/03/09 06:02:47;;;;;;;28.60;16.90;;;;;;;6.83;41.77;102091.20;106082;1260;1003579;-55
2024/03/09 06:05:14;;;;;;;27.10;16.90;;;;;;;6.87;41.90;102092.11;107108;1256;25475;-55
2024/03/09 06:07:44;;;;;;;27.20;18.80;;;;;;;6.96;42.31;102093.81;106339;1256;1003302;-55
2024/03/09 06:10:14;;;;;;;24.50;17.50;;;;;;;7.16;42.55;102097.02;106807;1259;22530;-55
2024/03/09 06:12:47;;;;;;;24.40;17.40;;;;;;;7.46;42.17;102102.58;107056;1255;22524;-55
2024/03/09 06:15:15;;;;;;;26.90;18.20;;;;;;;7.72;41.71;102101.33;107121;1256;25436;-55
2024/03/09 06:17:44;;;;;;;27.30;20.20;;;;;;;7.95;41.73;102099.70;107152;1255;25337;-55
2024/03/09 06:20:11;;;;;;;29.20;19.40;;;;;;;8.18;41.46;102101.99;107105;1256;24256;-55
2024/03/09 06:22:42;;;;;;;26.40;18.20;;;;;;;8.41;41.25;102097.73;106281;1260;1003055;-55
2024/03/09 06:25:25;;;;;;;26.10;18.60;;;;;;;8.63;41.06;102098.25;107033;1259;25400;-55
2024/03/09 06:27:54;;;;;;;23.80;18.40;;;;;;;8.90;40.38;102098.98;107039;1256;25329;-55
2024/03/09 06:30:23;;;;;;;24.20;17.80;;;;;;;9.17;39.85;102100.69;106883;1259;24212;-55
2024/03/09 06:32:57;;;;;;;23.60;18.20;;;;;;;9.42;39.34;102095.45;106122;1258;1003509;-55
2024/03/09 06:35:25;;;;;;;23.50;17.80;;;;;;;9.66;39.09;102096.92;107192;1259;22536;-55
2024/03/09 06:38:00;;;;;;;21.10;15.50;;;;;;;9.97;38.56;102096.48;106733;1272;25810;-55
2024/03/09 06:40:30;;;;;;;28.20;18.30;;;;;;;10.28;37.76;102092.05;107051;1254;25469;-55
2024/03/09 06:42:58;;;;;;;21.90;17.30;;;;;;;10.53;37.25;102092.74;107058;1256;22552;-55
2024/03/09 06:45:26;;;;;;;21.00;16.90;;;;;;;10.83;36.61;102097.05;107060;1259;22559;-55
2024/03/09 06:47:54;;;;;;;23.00;17.80;;;;;;;11.05;36.25;102092.84;106299;1256;1002906;-55
2024/03/09 06:50:21;;;;;;;19.90;15.90;;;;;;;11.27;35.81;102100.59;106407;1256;1002785;-55
2024/03/09 06:52:48;;;;;;;21.30;16.40;;;;;;;11.49;35.30;102101.38;106967;1261;25348;-55
2024/03/09 06:55:16;;;;;;;22.50;17.40;;;;;;;11.66;35.19;102097.67;107167;1257;25466;-55
2024/03/09 06:57:46;;;;;;;23.30;18.30;;;;;;;11.93;34.72;102095.63;107105;1256;25394;-55
2024/03/09 07:00:14;;;;;;;19.10;16.20;;;;;;;12.24;34.20;102092.64;107023;1256;25338;-56
2024/03/09 07:02:42;;;;;;;23.80;16.80;;;;;;;12.53;33.82;102090.48;106846;1258;25399;-56
2024/03/09 07:05:09;;;;;;;22.00;16.50;;;;;;;12.79;33.24;102087.80;106858;1260;24217;-56
2024/03/09 07:07:37;;;;;;;22.00;16.40;;;;;;;12.96;32.75;102089.73;107095;1256;22567;-55
2024/03/09 07:10:09;;;;;;;21.90;17.00;;;;;;;13.01;32.71;102089.16;107022;1266;25351;-56
2024/03/09 07:12:39;;;;;;;23.60;16.70;;;;;;;13.02;32.52;102091.05;106757;1269;25373;-56
2024/03/09 07:15:11;;;;;;;22.40;17.80;;;;;;;12.95;32.50;102090.95;107071;1257;25344;-56
2024/03/09 07:17:38;;;;;;;24.10;18.40;;;;;;;12.82;32.49;102091.77;107027;1258;22541;-56
2024/03/09 07:20:27;;;;;;;23.70;18.40;;;;;;;12.69;32.46;102095.73;107034;1261;25425;-56
2024/03/09 07:22:54;;;;;;;23.60;18.10;;;;;;;12.56;32.61;102093.60;106730;1264;22532;-56
2024/03/09 07:25:23;;;;;;;24.40;18.20;;;;;;;12.45;32.91;102094.73;106872;1259;25393;-56
2024/03/09 07:27:55;;;;;;;23.90;19.50;;;;;;;12.27;32.88;102099.76;106762;1260;25399;-56
2024/03/09 07:30:23;;;;;;;22.30;17.90;;;;;;;12.03;33.34;102104.96;106743;1267;25400;-55
2024/03/09 07:32:50;;;;;;;23.70;17.70;;;;;;;11.87;33.88;102103.48;106758;1259;25395;-55
2024/03/09 07:35:19;;;;;;;23.80;17.40;;;;;;;11.75;34.19;102108.25;106776;1259;25416;-55
2024/03/09 07:37:55;;;;;;;21.40;17.90;;;;;;;11.64;34.38;102104.28;106708;1263;25420;-55
2024/03/09 07:40:23;;;;;;;22.10;17.50;;;;;;;11.47;34.69;102107.14;106580;1262;25371;-55
2024/03/09 07:42:53;;;;;;;23.30;17.30;;;;;;;11.30;35.14;102105.45;106647;1262;22537;-55
2024/03/09 07:45:22;;;;;;;24.90;18.60;;;;;;;11.19;35.64;102107.73;106714;1258;25588;-55
2024/03/09 07:47:50;;;;;;;21.00;16.60;;;;;;;11.13;35.81;102102.73;106738;1258;25533;-55
2024/03/09 07:50:21;;;;;;;20.60;16.60;;;;;;;11.07;36.07;102101.87;106853;1258;25569;-55
2024/03/09 07:52:50;;;;;;;;;;;;;;;11.02;36.24;102102.93;106726;1265;24307;-55
2024/03/09 07:55:17;;;;;;;21.00;16.50;;;;;;;10.97;37.01;102102.77;106789;1258;25394;-55
2024/03/09 07:57:45;;;;;;;26.30;18.30;;;;;;;10.94;37.44;102101.55;106734;1259;22531;-55
2024/03/09 08:00:17;;;;;;;24.70;18.00;;;;;;;10.89;37.74;102099.65;106846;1259;25393;-55
2024/03/09 08:02:46;;;;;;;22.30;18.40;;;;;;;10.81;38.05;102100.19;106864;1267;22978;-55
2024/03/09 08:05:15;;;;;;;21.30;17.80;;;;;;;10.70;38.27;102099.85;106822;1267;25391;-55
2024/03/09 08:07:45;;;;;;;28.90;18.40;;;;;;;10.60;38.42;102097.27;106331;1256;1003840;-55
2024/03/09 08:10:14;;;;;;;22.40;17.70;;;;;;;10.53;38.44;102101.42;106344;1256;1003321;-55
2024/03/09 08:12:41;;;;;;;25.00;19.40;;;;;;;10.48;38.70;102100.71;107116;1256;24241;-55
2024/03/09 08:15:09;;;;;;;25.80;18.10;;;;;;;10.42;39.09;102098.64;105991;1262;1003693;-55
2024/03/09 08:17:36;;;;;;;24.60;18.00;;;;;;;10.38;38.95;102099.69;107111;1251;22801;-56
2024/03/09 08:20:07;;;;;;;24.80;18.10;;;;;;;10.33;38.62;102101.06;107047;1259;25402;-56
2024/03/09 08:22:39;;;;;;;24.50;18.90;;;;;;;10.12;39.32;102103.98;106731;1274;22621;-55
2024/03/09 08:25:08;;;;;;;25.30;19.60;;;;;;;10.24;39.40;102101.23;107112;1263;25403;-55
2024/03/09 08:27:37;;;;;;;23.00;18.90;;;;;;;10.25;39.61;102103.14;107071;1255;22722;-55
2024/03/09 08:30:06;;;;;;;25.70;19.40;;;;;;;10.26;39.55;102102.11;106897;1270;23710;-55
2024/03/09 08:32:36;;;;;;;24.10;19.10;;;;;;;10.21;39.55;102101.07;106826;1260;22529;-55
2024/03/09 08:35:08;;;;;;;22.30;18.10;;;;;;;10.15;39.48;102101.75;107125;1270;25431;-55
2024/03/09 08:37:38;;;;;;;22.80;19.10;;;;;;;10.12;39.62;102098.27;106875;1260;22539;-55
2024/03/09 08:40:06;;;;;;;26.40;19.80;;;;;;;10.12;40.04;102097.75;106779;1259;22546;-55
2024/03/09 08:42:33;;;;;;;26.40;19.60;;;;;;;10.17;39.98;102096.55;106980;1259;25279;-55
2024/03/09 08:45:09;;;;;;;26.20;20.20;;;;;;;10.19;39.81;102093.25;106269;1256;1003528;-55
2024/03/09 08:47:36;;;;;;;25.90;18.70;;;;;;;10.19;40.08;102090.30;106964;1267;25333;-55
2024/03/09 08:50:04;;;;;;;25.60;19.80;;;;;;;10.21;40.35;102093.60;107209;1259;25425;-53
2024/03/09 08:52:34;;;;;;;25.70;19.60;;;;;;;10.19;40.44;102086.48;107066;1255;25265;-56
2024/03/09 08:55:01;;;;;;;25.90;20.50;;;;;;;10.16;40.69;102089.09;106887;1260;22521;-56
2024/03/09 08:57:29;;;;;;;27.20;21.30;;;;;;;10.15;40.73;102087.52;106949;1259;25485;-56
2024/03/09 08:59:59;;;;;;;24.30;18.80;;;;;;;10.10;40.76;102087.85;107078;1255;22557;-56
2024/03/09 09:02:27;;;;;;;26.60;20.60;;;;;;;10.10;41.20;102084.55;107120;1266;25348;-56
2024/03/09 09:04:54;;;;;;;28.10;21.40;;;;;;;10.14;40.96;102084.58;107218;1261;22646;-55
2024/03/09 09:07:21;;;;;;;27.40;21.30;;;;;;;10.16;40.83;102084.58;107239;1262;25399;-55
2024/03/09 09:09:48;;;;;;;26.50;19.70;;;;;;;10.19;40.82;102080.25;107300;1266;24031;-55
2024/03/09 09:12:17;;;;;;;31.60;21.30;;;;;;;10.25;40.98;102079.91;107334;1267;22528;-55
2024/03/09 09:14:44;;;;;;;29.30;22.40;;;;;;;10.31;41.24;102075.05;106774;1270;1003676;-56
2024/03/09 09:17:12;;;;;;;28.00;20.80;;;;;;;10.36;41.45;102076.96;107265;1262;25366;-56
2024/03/09 09:19:39;;;;;;;29.90;22.30;;;;;;;10.40;41.40;102074.35;107342;1272;22567;-55
2024/03/09 09:22:07;;;;;;;27.10;21.00;;;;;;;10.47;41.56;102074.70;107419;1264;23225;-56
2024/03/09 09:24:34;;;;;;;29.30;20.90;;;;;;;10.57;41.48;102071.94;107761;1257;22527;-56
2024/03/09 09:27:01;;;;;;;26.60;19.80;;;;;;;10.69;41.00;102072.08;106488;1257;1003731;-55
2024/03/09 09:29:28;;;;;;;26.60;20.60;;;;;;;10.75;40.94;102069.13;106971;1263;25501;-55
2024/03/09 09:31:56;;;;;;;27.20;21.00;;;;;;;10.82;41.22;102067.38;107227;1269;25361;-55
2024/03/09 09:34:23;;;;;;;28.10;20.70;;;;;;;10.87;41.28;102067.19;106918;1275;25373;-55
2024/03/09 09:36:53;;;;;;;25.50;19.80;;;;;;;10.95;41.59;102067.35;107156;1267;25362;-56
2024/03/09 09:39:24;;;;;;;28.20;20.60;;;;;;;10.98;41.68;102062.83;107160;1271;24376;-55
2024/03/09 09:41:56;;;;;;;23.60;18.70;;;;;;;11.02;41.65;102064.89;106552;1257;1002934;-56
2024/03/09 09:44:28;;;;;;;23.90;17.50;;;;;;;11.21;40.97;102065.52;107096;1267;25352;-57
2024/03/09 09:46:56;;;;;;;24.00;19.10;;;;;;;11.24;40.38;102066.56;106294;1273;1003100;-56
2024/03/09 09:49:24;;;;;;;21.60;17.60;;;;;;;11.29;40.28;102066.70;107140;1256;25540;-56
2024/03/09 09:51:52;;;;;;;23.40;17.90;;;;;;;11.38;39.90;102067.02;106938;1260;25389;-56
2024/03/09 09:54:27;;;;;;;26.30;18.90;;;;;;;11.45;39.65;102060.73;107040;1267;22519;-55
2024/03/09 09:56:55;;;;;;;22.90;18.70;;;;;;;11.50;39.64;102058.63;107309;1256;22517;-55
2024/03/09 09:59:24;;;;;;;24.90;18.30;;;;;;;11.56;38.62;102055.30;106926;1273;24344;-55
2024/03/09 10:01:54;;;;;;;25.70;17.90;;;;;;;11.67;38.08;102057.87;107213;1264;22541;-55
2024/03/09 10:04:21;;;;;;;23.30;16.20;;;;;;;11.80;37.74;102055.38;106567;1256;1003344;-55
2024/03/09 10:06:48;;;;;;;23.70;17.10;;;;;;;11.90;37.50;102057.73;106569;1256;1003349;-55
2024/03/09 10:09:28;;;;;;;24.30;17.10;;;;;;;12.00;37.55;102051.58;107221;1257;24286;-55
2024/03/09 10:11:55;;;;;;;22.90;15.80;;;;;;;12.11;37.47;102043.16;106882;1260;24359;-55
2024/03/09 10:14:27;;;;;;;26.80;17.00;;;;;;;12.20;37.63;102046.03;107378;1269;23123;-56
2024/03/09 10:16:55;;;;;;;22.10;17.00;;;;;;;12.27;37.92;102043.72;107170;1256;23968;-56
2024/03/09 10:19:22;;;;;;;22.00;16.50;;;;;;;12.34;37.85;102038.45;107093;1260;24520;-56
2024/03/09 10:21:51;;;;;;;26.80;17.60;;;;;;;12.37;37.27;102035.98;106618;1273;25350;-56
2024/03/09 10:24:18;;;;;;;28.50;18.50;;;;;;;12.43;36.90;102038.71;106851;1259;24249;-56
2024/03/09 10:26:45;;;;;;;30.50;19.90;;;;;;;12.47;37.29;102034.33;107016;1275;23294;-56
2024/03/09 10:29:15;;;;;;;30.70;19.70;;;;;;;12.54;37.04;102039.48;106711;1269;25545;-56
2024/03/09 10:31:43;;;;;;;27.80;17.30;;;;;;;12.57;36.96;102043.61;106043;1268;1002989;-56
2024/03/09 10:34:10;;;;;;;20.60;14.40;;;;;;;12.65;36.34;102040.92;106622;1272;25356;-56
2024/03/09 10:36:37;;;;;;;20.60;16.40;;;;;;;12.76;35.69;102039.77;106340;1276;22534;-56
2024/03/09 10:39:04;;;;;;;26.20;16.80;;;;;;;12.85;36.22;102039.87;105751;1272;1003094;-57
2024/03/09 10:41:32;;;;;;;24.60;17.00;;;;;;;12.92;36.56;102041.69;106514;1274;24410;-55
2024/03/09 10:44:01;;;;;;;21.50;16.70;;;;;;;12.99;36.54;102042.83;106814;1272;25535;-56
2024/03/09 10:46:29;;;;;;;19.70;16.10;;;;;;;13.06;36.20;102039.11;107025;1274;25613;-55
2024/03/09 10:48:57;;;;;;;20.80;15.50;;;;;;;13.14;36.06;102035.05;106527;1274;25401;-55
2024/03/09 10:51:41;;;;;;;20.80;15.10;;;;;;;13.19;35.67;102029.77;106707;1267;25512;-55
2024/03/09 10:54:22;;;;;;;20.20;15.00;;;;;;;13.24;35.27;102034.58;106583;1257;1004299;-55
2024/03/09 10:56:51;;;;;;;19.90;16.20;;;;;;;13.29;35.18;102031.55;106965;1270;25568;-55
2024/03/09 10:59:22;;;;;;;18.90;15.20;;;;;;;13.32;35.24;102029.05;107364;1267;25531;-55
2024/03/09 11:01:52;;;;;;;19.40;16.00;;;;;;;13.33;35.09;102029.92;107284;1274;22544;-56
2024/03/09 11:04:24;;;;;;;17.80;14.10;;;;;;;13.35;34.92;102030.77;107257;1267;24465;-55
2024/03/09 11:06:51;;;;;;;18.70;14.90;;;;;;;13.41;35.02;102034.17;106581;1273;22644;-55
2024/03/09 11:09:29;;;;;;;21.30;16.10;;;;;;;13.48;35.38;102035.46;106899;1271;26595;-56